Latest Weather Observations for Rolleston Airport

IDQ60801

Issued at 5:32 pm EST Monday 6 July 2015 (issued every 30 minutes, with the page automatically refreshed every 10 minutes)

About weather observations | Map of weather stations | Latest weather observations for QLD | Other Formats
Station Details ID: 035129 Name: ROLLESTON AIRPORT Lat: -24.46 Lon: 148.63 Height: 219.45 m
Data from the previous 72 hours. | See also: Recent months at Rolleston Airport
Date/Time
EST
Temp
°C
App
Temp
°C
Dew
Point
Rel
Hum
%
Delta-T
°C
Wind Press
QNH
hPa
Press
MSL
hPa
Rain
since 9 am
mm
Dir
 
Spd
km/h
Gust
km/h
Spd
kts
Gust
kts
06/05:30pm 21.1 19.7 8.7 45 6.6 NNE 6 6 3 3 1016.8 1016.6 0.0
06/05:00pm 22.8 22.1 8.5 40 7.7 N 2 4 1 2 1016.7 1016.5 0.0
06/04:30pm 23.1 21.4 8.4 39 7.9 N 7 9 4 5 1016.3 1016.2 0.0
06/04:00pm 24.0 22.9 8.4 37 8.4 N 4 6 2 3 1016.4 1016.3 0.0
06/03:30pm 24.1 22.6 8.5 37 8.4 W 6 11 3 6 1016.5 1016.4 0.0
06/03:00pm 23.9 22.4 8.3 37 8.4 NNW 6 9 3 5 1016.8 1016.6 0.0
06/02:00pm 23.2 21.8 8.9 40 7.7 NNW 6 11 3 6 1017.4 1017.2 0.0
06/01:30pm 23.3 21.5 9.3 41 7.6 NNW 9 17 5 9 1017.7 1017.5 0.0
06/01:00pm 22.5 21.0 9.0 42 7.3 W 7 13 4 7 1018.2 1018.0 0.0
06/12:30pm 21.8 20.3 9.3 45 6.8 NNW 7 13 4 7 1018.9 1018.7 0.0
06/12:00pm 21.1 19.4 10.0 49 6.0 NNE 9 15 5 8 1019.5 1019.4 0.0
06/11:30am 20.5 19.5 10.9 54 5.3 NNW 7 11 4 6 1019.9 1019.8 0.0
06/11:00am 19.1 18.6 10.9 59 4.5 SSW 4 7 2 4 1020.4 1020.3 0.0
06/10:30am 18.2 17.7 10.6 61 4.1 WSW 4 9 2 5 1020.9 1020.8 0.0
06/10:00am 17.0 15.9 10.1 64 3.7 SW 6 7 3 4 1021.1 1021.0 0.0
06/09:30am 14.8 13.7 8.3 65 3.3 SW 4 7 2 4 1021.2 1021.1 0.0
06/09:00am 12.6 10.9 7.5 71 2.5 S 6 7 3 4 1021.1 1021.0 0.0
06/08:30am 10.4 8.8 6.2 75 2.0 S 4 4 2 2 1020.9 1020.8 0.0
06/08:00am 8.2 6.4 5.3 82 1.3 S 4 6 2 3 1020.7 1020.6 0.0
06/07:30am 6.8 4.9 5.0 88 0.8 SSE 4 6 2 3 1020.5 1020.4 0.0
06/07:00am 5.4 3.3 3.7 89 0.7 S 4 4 2 2 1020.4 1020.3 0.0
06/06:30am 6.0 3.6 4.2 88 0.8 SSE 6 6 3 3 1020.1 1020.0 0.0
06/06:00am 6.5 4.2 4.7 88 0.8 SSE 6 6 3 3 1019.9 1019.8 0.0
06/05:30am 6.0 3.6 4.3 89 0.7 SSE 6 7 3 4 1019.8 1019.7 0.0
06/05:00am 6.0 4.8 4.5 90 0.7 CALM 0 2 0 1 1019.8 1019.7 0.0
06/04:30am 5.8 4.5 4.1 89 0.7 CALM 0 0 0 0 1019.8 1019.7 0.0
06/04:00am 6.8 5.2 4.6 86 1.0 SE 2 4 1 2 1020.1 1020.0 0.0
06/03:30am 6.7 5.0 4.2 84 1.1 S 2 4 1 2 1020.0 1019.9 0.0
06/03:00am 7.9 6.4 5.2 83 1.2 SE 2 4 1 2 1019.7 1019.6 0.0
06/02:30am 7.7 6.6 5.2 84 1.1 CALM 0 0 0 0 1019.7 1019.6 0.0
06/02:00am 7.3 6.1 4.4 82 1.3 CALM 0 0 0 0 1019.9 1019.8 0.0
06/01:30am 8.1 6.5 4.7 79 1.5 SSE 2 4 1 2 1020.1 1020.0 0.0
06/01:00am 8.6 7.2 5.5 81 1.4 NNW 2 4 1 2 1020.3 1020.2 0.0
06/12:30am 9.6 8.4 4.8 72 2.2 CALM 0 0 0 0 1020.1 1020.0 0.0
06/12:00am 9.8 8.7 5.0 72 2.2 CALM 0 0 0 0 1020.3 1020.2 0.0
 
Date/Time
EST
Temp
°C
App
Temp
°C
Dew
Point
Rel
Hum
%
Delta-T
°C
Wind Press
QNH
hPa
Press
MSL
hPa
Rain
since 9 am
mm
Dir
 
Spd
km/h
Gust
km/h
Spd
kts
Gust
kts
05/11:30pm 10.0 8.1 5.0 71 2.3 SSW 4 4 2 2 1020.5 1020.4 0.0
05/11:00pm 10.4 8.6 5.2 70 2.4 SSW 4 6 2 3 1020.5 1020.4 0.0
05/10:30pm 10.7 9.2 4.8 67 2.7 S 2 4 1 2 1020.4 1020.3 0.0
05/10:00pm 10.7 8.7 4.6 66 2.8 S 4 6 2 3 1020.5 1020.4 0.0
05/09:30pm 11.8 9.4 4.5 61 3.3 SSW 6 9 3 5 1020.4 1020.3 0.0
05/09:00pm 14.4 11.3 5.5 55 4.2 E 11 13 6 7 1020.3 1020.2 0.0
05/08:30pm 14.4 12.0 5.2 54 4.4 E 7 7 4 4 1020.2 1020.1 0.0
05/08:00pm 14.5 12.3 5.3 54 4.4 E 6 7 3 4 1020.1 1020.0 0.0
05/07:30pm 14.7 11.9 5.2 53 4.5 ESE 9 13 5 7 1019.9 1019.8 0.0
05/07:00pm 16.7 14.6 5.6 48 5.4 S 6 7 3 4 1019.8 1019.7 0.0
05/06:30pm 16.7 14.9 5.3 47 5.5 SSW 4 6 2 3 1019.5 1019.4 0.0
05/06:00pm 17.1 14.7 4.1 42 6.1 SSE 6 9 3 5 1019.2 1019.0 0.0
05/05:30pm 20.3 18.0 4.8 36 7.6 SSW 6 6 3 3 1019.1 1018.9 0.0
05/05:00pm 21.9 19.6 4.9 33 8.5 SSW 6 7 3 4 1018.9 1018.7 0.0
05/04:30pm 22.9 20.5 4.4 30 9.2 SSW 6 11 3 6 1018.6 1018.4 0.0
05/04:00pm 23.9 21.9 4.3 28 9.8 WNW 4 6 2 3 1018.8 1018.6 0.0
05/03:30pm 23.4 21.0 4.4 29 9.5 NE 6 9 3 5 1018.8 1018.6 0.0
05/03:00pm 24.7 23.0 6.0 30 9.7 NW 4 11 2 6 1018.8 1018.6 0.0
05/02:30pm 23.2 20.7 4.7 30 9.3 W 7 11 4 6 1018.9 1018.7 0.0
05/02:00pm 22.7 20.3 4.2 30 9.1 ESE 6 11 3 6 1019.1 1018.9 0.0
05/01:30pm 23.0 20.6 4.5 30 9.2 NNW 6 17 3 9 1019.4 1019.3 0.0
05/01:00pm 22.8 20.7 5.7 33 8.7 NNW 6 9 3 5 1019.8 1019.7 0.0
05/12:30pm 21.9 19.5 5.3 34 8.3 NW 7 15 4 8 1020.5 1020.4 0.0
05/12:00pm 21.1 18.7 5.1 35 7.9 NNE 7 17 4 9 1021.2 1021.1 0.0
05/11:30am 21.3 18.8 4.8 34 8.2 NNW 7 19 4 10 1022.1 1021.9 0.0
05/11:00am 20.3 19.5 8.0 45 6.4 NE 2 6 1 3 1022.7 1022.5 0.0
05/10:30am 18.5 17.6 9.3 55 4.9 S 4 7 2 4 1023.0 1022.8 0.0
05/10:00am 16.7 15.1 7.9 56 4.5 SW 6 7 3 4 1023.2 1023.1 0.0
05/09:30am 15.3 13.5 7.3 59 4.0 SSW 6 7 3 4 1023.4 1023.3 0.0
05/09:00am 13.2 11.3 6.5 64 3.2 SSW 6 9 3 5 1023.1 1023.0 0.0
05/08:30am 11.5 9.8 6.0 69 2.6 S 4 7 2 4 1022.7 1022.5 0.0
05/08:00am 9.7 8.8 6.2 79 1.6 CALM 0 0 0 0 1022.3 1022.1 0.0
05/07:30am 7.9 6.7 4.8 81 1.4 CALM 0 0 0 0 1022.1 1021.9 0.0
05/07:00am 8.7 7.7 5.4 80 1.5 CALM 0 0 0 0 1021.9 1021.7 0.0
05/06:30am 8.8 7.2 6.3 84 1.2 ESE 4 6 2 3 1021.9 1021.7 0.0
05/06:00am 8.5 6.6 4.9 78 1.6 SSW 4 4 2 2 1021.5 1021.3 0.0
05/05:30am 8.8 7.6 4.8 76 1.8 CALM 0 0 0 0 1021.0 1020.9 0.0
05/05:00am 10.0 8.9 5.2 72 2.2 CALM 0 0 0 0 1020.6 1020.5 0.0
05/04:30am 10.5 9.5 5.5 71 2.3 CALM 0 0 0 0 1020.5 1020.4 0.0
05/04:00am 11.6 10.6 5.7 67 2.8 CALM 0 4 0 2 1020.5 1020.4 0.0
05/03:30am 11.7 10.7 5.6 66 2.9 CALM 0 0 0 0 1020.4 1020.3 0.0
05/03:00am 11.9 10.6 5.8 66 2.9 WSW 2 4 1 2 1020.6 1020.5 0.0
05/02:30am 11.7 9.6 5.8 67 2.8 SSW 6 7 3 4 1020.6 1020.5 0.0
05/02:00am 11.8 9.6 5.4 65 3.0 SW 6 7 3 4 1020.8 1020.7 0.0
05/01:30am 11.8 11.0 6.3 69 2.6 CALM 0 0 0 0 1020.8 1020.7 0.0
05/01:00am 12.0 11.2 6.5 69 2.6 CALM 0 2 0 1 1020.8 1020.7 0.0
05/12:30am 12.1 11.3 6.6 69 2.6 CALM 0 4 0 2 1021.1 1021.0 0.0
05/12:00am 12.5 10.9 6.5 67 2.9 SSW 4 6 2 3 1021.1 1021.0 0.0
 
Date/Time
EST
Temp
°C
App
Temp
°C
Dew
Point
Rel
Hum
%
Delta-T
°C
Wind Press
QNH
hPa
Press
MSL
hPa
Rain
since 9 am
mm
Dir
 
Spd
km/h
Gust
km/h
Spd
kts
Gust
kts
04/11:30pm 12.9 11.4 6.9 67 2.9 SSE 4 6 2 3 1021.2 1021.1 0.0
04/11:00pm 12.8 10.9 7.5 70 2.6 SSE 7 7 4 4 1021.6 1021.4 0.0
04/10:30pm 12.3 10.4 6.8 69 2.7 S 6 9 3 5 1021.7 1021.5 0.0
04/10:00pm 11.3 9.7 6.2 71 2.4 S 4 4 2 2 1021.5 1021.3 0.0
04/09:30pm 11.7 10.8 6.2 69 2.6 CALM 0 0 0 0 1021.7 1021.5 0.0
04/09:00pm 11.9 10.0 6.6 70 2.5 S 6 7 3 4 1021.7 1021.5 0.0
04/08:30pm 12.2 10.9 6.0 66 2.9 SSW 2 4 1 2 1021.6 1021.4 0.0
04/08:00pm 13.2 11.9 5.9 61 3.5 W 2 4 1 2 1021.3 1021.2 0.0
04/07:30pm 15.8 12.9 6.5 54 4.6 E 11 11 6 6 1021.0 1020.9 0.0
04/07:00pm 16.2 12.8 6.1 51 4.9 E 13 15 7 8 1020.7 1020.6 0.0
04/06:30pm 15.9 14.0 4.9 48 5.3 E 4 6 2 3 1020.3 1020.2 0.0
04/06:00pm 18.6 16.4 5.5 42 6.4 ESE 6 6 3 3 1019.9 1019.8 0.0
04/05:30pm 19.6 17.5 6.0 41 6.8 E 6 6 3 3 1019.6 1019.5 0.0
04/05:00pm 21.3 19.5 5.6 36 7.9 ENE 4 6 2 3 1019.4 1019.3 0.0
04/04:30pm 21.9 19.8 5.8 35 8.2 E 6 13 3 7 1019.3 1019.2 0.0
04/04:00pm 22.0 19.5 5.0 33 8.5 NNE 7 15 4 8 1019.1 1018.9 0.0
04/03:30pm 22.2 20.0 5.2 33 8.5 ESE 6 11 3 6 1019.0 1018.8 0.0
04/03:00pm 22.1 19.9 5.1 33 8.5 NE 6 15 3 8 1019.0 1018.8 0.0
04/02:30pm 22.2 20.0 5.2 33 8.5 N 6 13 3 7 1019.2 1019.0 0.0
04/02:00pm 22.1 20.4 5.9 35 8.2 S 4 9 2 5 1019.4 1019.3 0.0
04/01:30pm 21.9 19.7 6.2 36 8.0 NNE 7 15 4 8 1019.8 1019.7 0.0
04/01:00pm 21.4 19.1 5.7 36 7.9 N 7 19 4 10 1020.2 1020.1 0.0
04/12:30pm 21.4 19.3 5.7 36 7.9 ENE 6 13 3 7 1020.8 1020.7 0.0
04/12:00pm 20.4 18.2 3.6 33 8.1 SE 4 15 2 8 1021.5 1021.3 0.0
04/11:30am 19.1 16.3 3.3 35 7.5 S 7 13 4 7 1022.2 1022.0 0.0
04/11:00am 18.1 14.9 3.2 37 7.0 SE 9 17 5 9 1022.8 1022.6 0.0
04/10:30am 16.5 13.8 3.6 42 6.0 SE 7 13 4 7 1023.3 1023.2 0.0
04/10:00am 14.3 11.1 3.2 47 5.0 S 9 13 5 7 1023.6 1023.5 0.0
04/09:30am 11.8 8.6 3.1 55 3.9 S 9 13 5 7 1023.9 1023.8 0.0
04/09:00am 9.3 6.6 2.4 62 2.9 SSW 6 7 3 4 1024.0 1023.9 0.0
04/08:30am 6.9 3.9 1.8 70 2.1 S 7 9 4 5 1023.8 1023.7 0.0
04/08:00am 5.0 2.0 2.0 81 1.2 SSE 7 11 4 6 1023.8 1023.7 0.0
04/07:30am 2.8 0.6 1.0 88 0.7 S 2 4 1 2 1023.7 1023.6 0.0
04/07:00am 1.5 -0.9 -0.1 89 0.6 S 2 4 1 2 1023.5 1023.4 0.0
04/06:30am 1.6 -1.1 0.0 89 0.6 SSW 4 6 2 3 1023.4 1023.3 0.0
04/06:00am 1.1 -1.7 -0.7 88 0.6 WSW 4 6 2 3 1023.2 1023.1 0.0
04/05:30am 2.0 -1.2 -0.4 84 0.9 S 6 7 3 4 1023.1 1023.0 0.0
04/05:00am 2.6 -0.7 0.0 83 1.0 SSE 7 9 4 5 1022.9 1022.7 0.0
04/04:30am 3.3 0.1 0.5 82 1.1 SSE 7 9 4 5 1023.0 1022.8 0.0
04/04:00am 3.2 0.0 0.9 85 0.9 SSE 7 9 4 5 1022.9 1022.7 0.0
04/03:30am 2.9 -0.1 0.5 84 0.9 S 6 6 3 3 1022.8 1022.6 0.0
04/03:00am 2.9 -0.2 0.1 82 1.1 S 6 6 3 3 1022.7 1022.5 0.0
04/02:30am 3.2 0.0 -0.3 78 1.3 S 6 6 3 3 1022.7 1022.5 0.0
04/02:00am 4.9 1.7 1.0 76 1.5 SSE 7 9 4 5 1022.7 1022.5 0.0
04/01:30am 4.8 1.2 0.9 76 1.5 SE 9 11 5 6 1022.8 1022.6 0.0
04/01:00am 5.2 1.7 1.1 75 1.6 SSE 9 11 5 6 1023.0 1022.8 0.0
04/12:30am 5.0 0.8 1.5 78 1.4 SE 13 13 7 7 1023.0 1022.8 0.0
04/12:00am 5.3 1.4 1.4 76 1.6 SE 11 13 6 7 1023.0 1022.8 0.0
 
Date/Time
EST
Temp
°C
App
Temp
°C
Dew
Point
Rel
Hum
%
Delta-T
°C
Wind Press
QNH
hPa
Press
MSL
hPa
Rain
since 9 am
mm
Dir
 
Spd
km/h
Gust
km/h
Spd
kts
Gust
kts
03/11:30pm 5.5 2.0 1.4 75 1.6 SSE 9 11 5 6 1023.2 1023.1 0.0
03/11:00pm 7.0 3.9 1.5 68 2.2 SSE 7 7 4 4 1023.4 1023.3 0.0
03/10:30pm 6.7 3.8 1.4 69 2.2 SSE 6 7 3 4 1023.6 1023.5 0.0
03/10:00pm 7.6 4.7 1.7 66 2.4 S 6 7 3 4 1023.7 1023.6 0.0
03/09:30pm 7.3 4.3 1.0 64 2.6 S 6 6 3 3 1023.6 1023.5 0.0
03/09:00pm 8.2 6.4 1.4 62 2.8 CALM 0 0 0 0 1023.4 1023.3 0.0
03/08:30pm 10.0 6.6 1.9 57 3.4 SE 9 11 5 6 1023.1 1023.0 0.0
03/08:00pm 10.9 7.1 2.0 54 3.8 ESE 11 13 6 7 1022.8 1022.6 0.0
03/07:30pm 11.1 7.6 1.4 51 4.1 SE 9 11 5 6 1022.6 1022.4 0.0
03/07:00pm 11.7 8.3 1.9 51 4.2 SE 9 11 5 6 1022.3 1022.1 0.0
03/06:30pm 12.7 9.6 1.4 46 4.9 ESE 7 11 4 6 1021.9 1021.7 0.0
03/06:00pm 13.6 10.6 0.6 41 5.5 SSE 6 9 3 5 1021.5 1021.3 0.0

Other Formats:

Comma delimited format used in spreadsheet applications
http://www.bom.gov.au/fwo/IDQ60801/IDQ60801.94396.axf

JavaScript Object Notation format (JSON) in row-major order
http://www.bom.gov.au/fwo/IDQ60801/IDQ60801.94396.json